sensor_id;sensor_type;location;lat;lon;timestamp;P1;durP1;ratioP1;P2;durP2;ratioP2
3329;SDS011;1677;49.576;10.990;2022-09-09T00:01:59;2.57;;;2.00;;
3329;SDS011;1677;49.576;10.990;2022-09-09T00:04:27;2.73;;;1.70;;
3329;SDS011;1677;49.576;10.990;2022-09-09T00:09:27;6.20;;;2.00;;
3329;SDS011;1677;49.576;10.990;2022-09-09T00:11:55;4.20;;;1.80;;
3329;SDS011;1677;49.576;10.990;2022-09-09T00:17:23;2.40;;;2.17;;
3329;SDS011;1677;49.576;10.990;2022-09-09T00:22:40;2.47;;;2.10;;
3329;SDS011;1677;49.576;10.990;2022-09-09T00:25:22;3.10;;;2.77;;
3329;SDS011;1677;49.576;10.990;2022-09-09T00:27:54;5.27;;;2.27;;
3329;SDS011;1677;49.576;10.990;2022-09-09T00:30:25;2.33;;;1.90;;
3329;SDS011;1677;49.576;10.990;2022-09-09T00:32:59;2.57;;;1.60;;
3329;SDS011;1677;49.576;10.990;2022-09-09T00:38:00;3.50;;;1.80;;
3329;SDS011;1677;49.576;10.990;2022-09-09T00:51:29;2.40;;;1.93;;
3329;SDS011;1677;49.576;10.990;2022-09-09T00:56:54;3.73;;;1.93;;
3329;SDS011;1677;49.576;10.990;2022-09-09T01:02:13;2.33;;;1.80;;
3329;SDS011;1677;49.576;10.990;2022-09-09T01:04:57;2.37;;;1.60;;
3329;SDS011;1677;49.576;10.990;2022-09-09T01:07:30;3.80;;;2.10;;
3329;SDS011;1677;49.576;10.990;2022-09-09T01:09:57;4.70;;;1.83;;
3329;SDS011;1677;49.576;10.990;2022-09-09T01:12:32;2.20;;;1.93;;
3329;SDS011;1677;49.576;10.990;2022-09-09T01:15:07;1.60;;;1.50;;
3329;SDS011;1677;49.576;10.990;2022-09-09T01:20:12;2.30;;;2.10;;
3329;SDS011;1677;49.576;10.990;2022-09-09T01:27:55;4.10;;;1.70;;
3329;SDS011;1677;49.576;10.990;2022-09-09T01:30:23;2.23;;;2.00;;
3329;SDS011;1677;49.576;10.990;2022-09-09T01:32:53;7.67;;;2.20;;
3329;SDS011;1677;49.576;10.990;2022-09-09T01:38:21;5.73;;;2.37;;
3329;SDS011;1677;49.576;10.990;2022-09-09T01:40:48;3.83;;;2.03;;
3329;SDS011;1677;49.576;10.990;2022-09-09T01:43:17;4.30;;;2.10;;
3329;SDS011;1677;49.576;10.990;2022-09-09T01:45:46;2.70;;;1.90;;
3329;SDS011;1677;49.576;10.990;2022-09-09T01:48:16;4.10;;;2.07;;
3329;SDS011;1677;49.576;10.990;2022-09-09T01:50:43;4.30;;;2.30;;
3329;SDS011;1677;49.576;10.990;2022-09-09T01:53:09;2.13;;;1.57;;
3329;SDS011;1677;49.576;10.990;2022-09-09T01:55:40;3.97;;;2.33;;
3329;SDS011;1677;49.576;10.990;2022-09-09T02:03:40;2.40;;;2.20;;
3329;SDS011;1677;49.576;10.990;2022-09-09T02:06:24;2.47;;;1.70;;
3329;SDS011;1677;49.576;10.990;2022-09-09T02:08:55;4.60;;;2.30;;
3329;SDS011;1677;49.576;10.990;2022-09-09T02:11:23;2.40;;;1.83;;
3329;SDS011;1677;49.576;10.990;2022-09-09T02:14:01;2.77;;;1.90;;
3329;SDS011;1677;49.576;10.990;2022-09-09T02:16:41;1.80;;;1.50;;
3329;SDS011;1677;49.576;10.990;2022-09-09T02:19:08;2.20;;;1.90;;
3329;SDS011;1677;49.576;10.990;2022-09-09T02:21:55;6.03;;;2.00;;
3329;SDS011;1677;49.576;10.990;2022-09-09T02:24:24;2.23;;;1.90;;
3329;SDS011;1677;49.576;10.990;2022-09-09T02:26:52;2.30;;;1.87;;
3329;SDS011;1677;49.576;10.990;2022-09-09T02:29:24;4.93;;;2.00;;
3329;SDS011;1677;49.576;10.990;2022-09-09T02:31:53;2.67;;;1.77;;
3329;SDS011;1677;49.576;10.990;2022-09-09T02:34:22;2.23;;;2.03;;
3329;SDS011;1677;49.576;10.990;2022-09-09T02:36:49;2.47;;;2.00;;
3329;SDS011;1677;49.576;10.990;2022-09-09T02:39:18;2.30;;;1.90;;
3329;SDS011;1677;49.576;10.990;2022-09-09T02:41:44;2.57;;;2.10;;
3329;SDS011;1677;49.576;10.990;2022-09-09T02:44:11;5.77;;;2.30;;
3329;SDS011;1677;49.576;10.990;2022-09-09T02:49:43;2.60;;;2.20;;
3329;SDS011;1677;49.576;10.990;2022-09-09T02:52:32;4.17;;;2.20;;
3329;SDS011;1677;49.576;10.990;2022-09-09T02:55:18;6.93;;;2.00;;
3329;SDS011;1677;49.576;10.990;2022-09-09T02:57:56;5.17;;;2.23;;
3329;SDS011;1677;49.576;10.990;2022-09-09T03:00:27;2.40;;;1.83;;
3329;SDS011;1677;49.576;10.990;2022-09-09T03:02:53;2.50;;;2.00;;
3329;SDS011;1677;49.576;10.990;2022-09-09T03:05:19;2.93;;;2.10;;
3329;SDS011;1677;49.576;10.990;2022-09-09T03:07:46;2.50;;;2.10;;
3329;SDS011;1677;49.576;10.990;2022-09-09T03:10:12;1.93;;;1.63;;
3329;SDS011;1677;49.576;10.990;2022-09-09T03:12:38;4.17;;;2.30;;
3329;SDS011;1677;49.576;10.990;2022-09-09T03:15:04;2.33;;;1.97;;
3329;SDS011;1677;49.576;10.990;2022-09-09T03:17:31;2.10;;;1.87;;
3329;SDS011;1677;49.576;10.990;2022-09-09T03:19:56;3.20;;;2.07;;
3329;SDS011;1677;49.576;10.990;2022-09-09T03:22:23;4.23;;;3.77;;
3329;SDS011;1677;49.576;10.990;2022-09-09T03:24:50;3.33;;;2.20;;
3329;SDS011;1677;49.576;10.990;2022-09-09T03:27:16;3.47;;;2.53;;
3329;SDS011;1677;49.576;10.990;2022-09-09T03:29:42;3.80;;;1.87;;
3329;SDS011;1677;49.576;10.990;2022-09-09T03:32:07;3.90;;;2.60;;
3329;SDS011;1677;49.576;10.990;2022-09-09T03:34:35;2.17;;;1.97;;
3329;SDS011;1677;49.576;10.990;2022-09-09T03:37:04;3.40;;;2.40;;
3329;SDS011;1677;49.576;10.990;2022-09-09T03:39:30;2.27;;;2.00;;
3329;SDS011;1677;49.576;10.990;2022-09-09T03:41:56;3.23;;;2.10;;
3329;SDS011;1677;49.576;10.990;2022-09-09T03:44:21;2.57;;;2.07;;
3329;SDS011;1677;49.576;10.990;2022-09-09T03:46:47;2.43;;;2.23;;
3329;SDS011;1677;49.576;10.990;2022-09-09T03:49:12;2.40;;;1.97;;
3329;SDS011;1677;49.576;10.990;2022-09-09T03:51:38;4.03;;;2.60;;
3329;SDS011;1677;49.576;10.990;2022-09-09T03:54:05;3.23;;;2.23;;
3329;SDS011;1677;49.576;10.990;2022-09-09T03:56:33;3.67;;;1.87;;
3329;SDS011;1677;49.576;10.990;2022-09-09T03:58:59;1.70;;;1.60;;
3329;SDS011;1677;49.576;10.990;2022-09-09T04:01:24;2.50;;;2.30;;
3329;SDS011;1677;49.576;10.990;2022-09-09T04:03:50;3.00;;;2.50;;
3329;SDS011;1677;49.576;10.990;2022-09-09T04:06:17;2.40;;;2.20;;
3329;SDS011;1677;49.576;10.990;2022-09-09T04:08:42;2.77;;;2.47;;
3329;SDS011;1677;49.576;10.990;2022-09-09T04:11:09;3.20;;;1.80;;
3329;SDS011;1677;49.576;10.990;2022-09-09T04:13:36;2.40;;;1.80;;
3329;SDS011;1677;49.576;10.990;2022-09-09T04:16:04;4.73;;;2.10;;
3329;SDS011;1677;49.576;10.990;2022-09-09T04:18:30;1.80;;;1.70;;
3329;SDS011;1677;49.576;10.990;2022-09-09T04:20:56;2.60;;;2.40;;
3329;SDS011;1677;49.576;10.990;2022-09-09T04:23:23;2.37;;;1.90;;
3329;SDS011;1677;49.576;10.990;2022-09-09T04:25:50;2.60;;;1.83;;
3329;SDS011;1677;49.576;10.990;2022-09-09T04:28:18;4.10;;;2.40;;
3329;SDS011;1677;49.576;10.990;2022-09-09T04:30:45;2.40;;;2.17;;
3329;SDS011;1677;49.576;10.990;2022-09-09T04:33:11;5.63;;;2.13;;
3329;SDS011;1677;49.576;10.990;2022-09-09T04:35:38;2.83;;;2.40;;
3329;SDS011;1677;49.576;10.990;2022-09-09T04:38:04;2.80;;;2.00;;
3329;SDS011;1677;49.576;10.990;2022-09-09T04:40:32;2.27;;;2.07;;
3329;SDS011;1677;49.576;10.990;2022-09-09T04:42:58;2.53;;;2.10;;
3329;SDS011;1677;49.576;10.990;2022-09-09T04:45:24;2.67;;;2.08;;
3329;SDS011;1677;49.576;10.990;2022-09-09T04:47:51;2.53;;;2.17;;
3329;SDS011;1677;49.576;10.990;2022-09-09T04:50:17;6.90;;;2.37;;
3329;SDS011;1677;49.576;10.990;2022-09-09T04:52:43;3.10;;;2.13;;
3329;SDS011;1677;49.576;10.990;2022-09-09T04:55:09;4.53;;;2.40;;
3329;SDS011;1677;49.576;10.990;2022-09-09T04:57:35;2.17;;;1.98;;
3329;SDS011;1677;49.576;10.990;2022-09-09T05:00:01;2.60;;;1.70;;
3329;SDS011;1677;49.576;10.990;2022-09-09T05:02:27;4.97;;;2.50;;
3329;SDS011;1677;49.576;10.990;2022-09-09T05:04:53;3.90;;;2.33;;
3329;SDS011;1677;49.576;10.990;2022-09-09T05:07:18;4.30;;;2.93;;
3329;SDS011;1677;49.576;10.990;2022-09-09T05:09:44;9.77;;;2.40;;
3329;SDS011;1677;49.576;10.990;2022-09-09T05:12:10;4.30;;;2.00;;
3329;SDS011;1677;49.576;10.990;2022-09-09T05:14:36;2.33;;;2.13;;
3329;SDS011;1677;49.576;10.990;2022-09-09T05:17:02;6.50;;;2.27;;
3329;SDS011;1677;49.576;10.990;2022-09-09T05:19:28;3.67;;;2.47;;
3329;SDS011;1677;49.576;10.990;2022-09-09T05:21:56;4.50;;;2.40;;
3329;SDS011;1677;49.576;10.990;2022-09-09T05:24:21;2.60;;;2.40;;
3329;SDS011;1677;49.576;10.990;2022-09-09T05:26:48;4.53;;;2.30;;
3329;SDS011;1677;49.576;10.990;2022-09-09T05:29:14;5.20;;;2.70;;
3329;SDS011;1677;49.576;10.990;2022-09-09T05:31:39;3.53;;;3.00;;
3329;SDS011;1677;49.576;10.990;2022-09-09T05:34:06;2.80;;;1.97;;
3329;SDS011;1677;49.576;10.990;2022-09-09T05:36:31;2.70;;;2.20;;
3329;SDS011;1677;49.576;10.990;2022-09-09T05:38:57;3.10;;;2.60;;
3329;SDS011;1677;49.576;10.990;2022-09-09T05:41:23;2.63;;;2.23;;
3329;SDS011;1677;49.576;10.990;2022-09-09T05:43:48;3.03;;;2.73;;
3329;SDS011;1677;49.576;10.990;2022-09-09T05:46:15;7.23;;;3.87;;
3329;SDS011;1677;49.576;10.990;2022-09-09T05:48:43;4.77;;;2.40;;
3329;SDS011;1677;49.576;10.990;2022-09-09T05:51:14;7.47;;;2.83;;
3329;SDS011;1677;49.576;10.990;2022-09-09T05:53:41;4.40;;;2.17;;
3329;SDS011;1677;49.576;10.990;2022-09-09T05:56:09;4.43;;;2.93;;
3329;SDS011;1677;49.576;10.990;2022-09-09T05:58:36;3.10;;;2.17;;
3329;SDS011;1677;49.576;10.990;2022-09-09T06:01:03;4.13;;;2.20;;
3329;SDS011;1677;49.576;10.990;2022-09-09T06:03:40;4.83;;;3.50;;
3329;SDS011;1677;49.576;10.990;2022-09-09T06:06:07;6.10;;;2.23;;
3329;SDS011;1677;49.576;10.990;2022-09-09T06:08:35;3.60;;;2.37;;
3329;SDS011;1677;49.576;10.990;2022-09-09T06:11:04;3.10;;;2.63;;
3329;SDS011;1677;49.576;10.990;2022-09-09T06:13:34;4.40;;;2.27;;
3329;SDS011;1677;49.576;10.990;2022-09-09T06:16:02;5.40;;;2.90;;
3329;SDS011;1677;49.576;10.990;2022-09-09T06:18:29;4.20;;;2.40;;
3329;SDS011;1677;49.576;10.990;2022-09-09T06:20:55;3.90;;;2.70;;
3329;SDS011;1677;49.576;10.990;2022-09-09T06:23:22;3.40;;;2.30;;
3329;SDS011;1677;49.576;10.990;2022-09-09T06:25:48;3.40;;;2.90;;
3329;SDS011;1677;49.576;10.990;2022-09-09T06:28:14;2.97;;;2.53;;
3329;SDS011;1677;49.576;10.990;2022-09-09T06:30:40;2.67;;;2.47;;
3329;SDS011;1677;49.576;10.990;2022-09-09T06:33:06;2.97;;;2.53;;
3329;SDS011;1677;49.576;10.990;2022-09-09T06:35:32;5.33;;;2.80;;
3329;SDS011;1677;49.576;10.990;2022-09-09T06:37:57;3.30;;;3.00;;
3329;SDS011;1677;49.576;10.990;2022-09-09T06:40:23;4.03;;;2.53;;
3329;SDS011;1677;49.576;10.990;2022-09-09T06:42:49;4.05;;;2.92;;
3329;SDS011;1677;49.576;10.990;2022-09-09T06:45:16;6.80;;;2.70;;
3329;SDS011;1677;49.576;10.990;2022-09-09T06:47:42;4.70;;;2.73;;
3329;SDS011;1677;49.576;10.990;2022-09-09T06:50:08;2.67;;;2.40;;
3329;SDS011;1677;49.576;10.990;2022-09-09T06:52:35;2.50;;;2.27;;
3329;SDS011;1677;49.576;10.990;2022-09-09T06:55:00;3.30;;;2.27;;
3329;SDS011;1677;49.576;10.990;2022-09-09T06:57:27;3.73;;;2.27;;
3329;SDS011;1677;49.576;10.990;2022-09-09T06:59:53;4.50;;;2.40;;
3329;SDS011;1677;49.576;10.990;2022-09-09T07:02:18;4.93;;;2.70;;
3329;SDS011;1677;49.576;10.990;2022-09-09T07:04:44;4.10;;;2.93;;
3329;SDS011;1677;49.576;10.990;2022-09-09T07:07:10;5.77;;;2.50;;
3329;SDS011;1677;49.576;10.990;2022-09-09T07:09:38;4.63;;;2.73;;
3329;SDS011;1677;49.576;10.990;2022-09-09T07:12:05;3.17;;;2.30;;
3329;SDS011;1677;49.576;10.990;2022-09-09T07:14:31;2.43;;;2.23;;
3329;SDS011;1677;49.576;10.990;2022-09-09T07:16:57;3.73;;;2.23;;
3329;SDS011;1677;49.576;10.990;2022-09-09T07:19:23;3.47;;;2.30;;
3329;SDS011;1677;49.576;10.990;2022-09-09T07:21:48;4.17;;;2.40;;
3329;SDS011;1677;49.576;10.990;2022-09-09T07:24:14;3.20;;;2.47;;
3329;SDS011;1677;49.576;10.990;2022-09-09T07:26:40;2.90;;;2.23;;
3329;SDS011;1677;49.576;10.990;2022-09-09T07:29:06;5.93;;;3.07;;
3329;SDS011;1677;49.576;10.990;2022-09-09T07:31:33;3.70;;;2.67;;
3329;SDS011;1677;49.576;10.990;2022-09-09T07:34:01;4.40;;;2.43;;
3329;SDS011;1677;49.576;10.990;2022-09-09T07:36:37;3.00;;;2.27;;
3329;SDS011;1677;49.576;10.990;2022-09-09T07:39:11;2.50;;;2.17;;
3329;SDS011;1677;49.576;10.990;2022-09-09T07:41:45;4.30;;;2.30;;
3329;SDS011;1677;49.576;10.990;2022-09-09T07:44:13;4.23;;;2.53;;
3329;SDS011;1677;49.576;10.990;2022-09-09T07:46:43;3.30;;;2.10;;
3329;SDS011;1677;49.576;10.990;2022-09-09T07:49:10;2.50;;;1.77;;
3329;SDS011;1677;49.576;10.990;2022-09-09T07:51:37;4.77;;;2.23;;
3329;SDS011;1677;49.576;10.990;2022-09-09T07:54:06;2.43;;;2.23;;
3329;SDS011;1677;49.576;10.990;2022-09-09T07:56:34;4.80;;;2.22;;
3329;SDS011;1677;49.576;10.990;2022-09-09T07:59:00;7.33;;;1.83;;
3329;SDS011;1677;49.576;10.990;2022-09-09T08:01:27;4.23;;;2.00;;
3329;SDS011;1677;49.576;10.990;2022-09-09T08:06:24;2.30;;;1.73;;
3329;SDS011;1677;49.576;10.990;2022-09-09T08:08:51;2.23;;;2.00;;
3329;SDS011;1677;49.576;10.990;2022-09-09T08:11:18;3.83;;;1.80;;
3329;SDS011;1677;49.576;10.990;2022-09-09T08:13:44;6.07;;;1.57;;
3329;SDS011;1677;49.576;10.990;2022-09-09T08:16:17;4.33;;;2.10;;
3329;SDS011;1677;49.576;10.990;2022-09-09T08:18:54;3.80;;;2.10;;
3329;SDS011;1677;49.576;10.990;2022-09-09T08:21:21;6.10;;;1.90;;
3329;SDS011;1677;49.576;10.990;2022-09-09T08:23:49;2.37;;;1.73;;
3329;SDS011;1677;49.576;10.990;2022-09-09T08:26:18;3.10;;;1.80;;
3329;SDS011;1677;49.576;10.990;2022-09-09T08:28:49;5.00;;;2.07;;
3329;SDS011;1677;49.576;10.990;2022-09-09T08:31:21;3.90;;;1.93;;
3329;SDS011;1677;49.576;10.990;2022-09-09T08:33:48;2.50;;;1.87;;
3329;SDS011;1677;49.576;10.990;2022-09-09T08:36:15;4.70;;;2.53;;
3329;SDS011;1677;49.576;10.990;2022-09-09T08:38:42;5.95;;;1.90;;
3329;SDS011;1677;49.576;10.990;2022-09-09T08:44:06;3.27;;;2.07;;
3329;SDS011;1677;49.576;10.990;2022-09-09T08:51:56;2.63;;;1.30;;
3329;SDS011;1677;49.576;10.990;2022-09-09T08:54:23;6.93;;;1.80;;
3329;SDS011;1677;49.576;10.990;2022-09-09T08:56:53;2.57;;;1.80;;
3329;SDS011;1677;49.576;10.990;2022-09-09T08:59:18;2.67;;;1.50;;
3329;SDS011;1677;49.576;10.990;2022-09-09T09:12:32;2.70;;;1.27;;
3329;SDS011;1677;49.576;10.990;2022-09-09T09:15:05;3.03;;;1.40;;
3329;SDS011;1677;49.576;10.990;2022-09-09T09:17:41;2.10;;;1.00;;
3329;SDS011;1677;49.576;10.990;2022-09-09T09:20:11;2.50;;;0.87;;
3329;SDS011;1677;49.576;10.990;2022-09-09T09:22:43;2.10;;;1.00;;
3329;SDS011;1677;49.576;10.990;2022-09-09T09:25:22;2.23;;;1.23;;
3329;SDS011;1677;49.576;10.990;2022-09-09T09:27:58;2.67;;;0.93;;
3329;SDS011;1677;49.576;10.990;2022-09-09T09:30:26;5.90;;;1.13;;
3329;SDS011;1677;49.576;10.990;2022-09-09T09:33:05;3.27;;;0.93;;
3329;SDS011;1677;49.576;10.990;2022-09-09T09:35:39;2.93;;;0.93;;
3329;SDS011;1677;49.576;10.990;2022-09-09T09:38:17;3.87;;;1.10;;
3329;SDS011;1677;49.576;10.990;2022-09-09T09:40:52;1.37;;;0.90;;
3329;SDS011;1677;49.576;10.990;2022-09-09T09:45:58;2.00;;;1.00;;
3329;SDS011;1677;49.576;10.990;2022-09-09T09:48:25;3.80;;;0.90;;
3329;SDS011;1677;49.576;10.990;2022-09-09T09:50:53;2.13;;;0.90;;
3329;SDS011;1677;49.576;10.990;2022-09-09T09:53:29;1.40;;;0.77;;
3329;SDS011;1677;49.576;10.990;2022-09-09T09:56:00;2.20;;;0.90;;
3329;SDS011;1677;49.576;10.990;2022-09-09T10:01:28;4.00;;;1.10;;
3329;SDS011;1677;49.576;10.990;2022-09-09T10:03:59;3.33;;;0.80;;
3329;SDS011;1677;49.576;10.990;2022-09-09T10:06:33;2.80;;;1.10;;
3329;SDS011;1677;49.576;10.990;2022-09-09T10:09:01;2.60;;;0.87;;
3329;SDS011;1677;49.576;10.990;2022-09-09T10:19:43;1.30;;;1.10;;
3329;SDS011;1677;49.576;10.990;2022-09-09T10:22:32;1.63;;;0.97;;
3329;SDS011;1677;49.576;10.990;2022-09-09T10:38:13;2.70;;;1.00;;
3329;SDS011;1677;49.576;10.990;2022-09-09T10:43:19;2.53;;;1.63;;
3329;SDS011;1677;49.576;10.990;2022-09-09T10:54:46;2.53;;;1.27;;
3329;SDS011;1677;49.576;10.990;2022-09-09T11:00:04;4.27;;;1.37;;
3329;SDS011;1677;49.576;10.990;2022-09-09T11:02:52;4.37;;;1.50;;
3329;SDS011;1677;49.576;10.990;2022-09-09T11:05:24;1.73;;;1.00;;
3329;SDS011;1677;49.576;10.990;2022-09-09T11:13:15;4.67;;;1.10;;
3329;SDS011;1677;49.576;10.990;2022-09-09T11:15:45;4.80;;;1.20;;
3329;SDS011;1677;49.576;10.990;2022-09-09T11:18:20;1.97;;;0.80;;
3329;SDS011;1677;49.576;10.990;2022-09-09T11:20:48;1.80;;;1.13;;
3329;SDS011;1677;49.576;10.990;2022-09-09T11:23:22;1.63;;;0.83;;
3329;SDS011;1677;49.576;10.990;2022-09-09T11:25:56;1.40;;;0.90;;
3329;SDS011;1677;49.576;10.990;2022-09-09T11:36:56;2.97;;;1.00;;
3329;SDS011;1677;49.576;10.990;2022-09-09T11:39:47;1.30;;;0.80;;
3329;SDS011;1677;49.576;10.990;2022-09-09T11:42:20;2.83;;;1.07;;
3329;SDS011;1677;49.576;10.990;2022-09-09T11:44:48;1.97;;;1.00;;
3329;SDS011;1677;49.576;10.990;2022-09-09T11:49:51;2.10;;;1.00;;
3329;SDS011;1677;49.576;10.990;2022-09-09T11:52:25;3.60;;;1.00;;
3329;SDS011;1677;49.576;10.990;2022-09-09T11:57:58;2.23;;;1.10;;
3329;SDS011;1677;49.576;10.990;2022-09-09T12:00:37;3.10;;;1.37;;
3329;SDS011;1677;49.576;10.990;2022-09-09T12:06:46;3.47;;;0.90;;
3329;SDS011;1677;49.576;10.990;2022-09-09T12:08:58;2.73;;;0.83;;
3329;SDS011;1677;49.576;10.990;2022-09-09T12:11:53;2.30;;;1.00;;
3329;SDS011;1677;49.576;10.990;2022-09-09T12:17:29;5.53;;;1.43;;
3329;SDS011;1677;49.576;10.990;2022-09-09T12:22:42;2.23;;;0.80;;
3329;SDS011;1677;49.576;10.990;2022-09-09T12:28:31;2.10;;;0.73;;
3329;SDS011;1677;49.576;10.990;2022-09-09T12:31:14;1.80;;;0.90;;
3329;SDS011;1677;49.576;10.990;2022-09-09T12:33:47;3.30;;;1.00;;
3329;SDS011;1677;49.576;10.990;2022-09-09T12:36:14;2.47;;;0.97;;
3329;SDS011;1677;49.576;10.990;2022-09-09T12:38:43;0.97;;;0.63;;
3329;SDS011;1677;49.576;10.990;2022-09-09T12:41:19;1.57;;;1.00;;
3329;SDS011;1677;49.576;10.990;2022-09-09T12:43:45;2.77;;;1.37;;
3329;SDS011;1677;49.576;10.990;2022-09-09T12:46:13;4.23;;;0.90;;
3329;SDS011;1677;49.576;10.990;2022-09-09T12:48:47;1.57;;;0.90;;
3329;SDS011;1677;49.576;10.990;2022-09-09T12:51:23;8.70;;;1.20;;
3329;SDS011;1677;49.576;10.990;2022-09-09T12:53:52;3.23;;;1.30;;
3329;SDS011;1677;49.576;10.990;2022-09-09T12:56:19;3.80;;;1.30;;
3329;SDS011;1677;49.576;10.990;2022-09-09T12:58:53;2.03;;;1.10;;
3329;SDS011;1677;49.576;10.990;2022-09-09T13:01:26;7.20;;;2.17;;
3329;SDS011;1677;49.576;10.990;2022-09-09T13:03:54;10.43;;;2.00;;
3329;SDS011;1677;49.576;10.990;2022-09-09T13:08:47;5.67;;;2.20;;
3329;SDS011;1677;49.576;10.990;2022-09-09T13:11:15;6.95;;;2.10;;
3329;SDS011;1677;49.576;10.990;2022-09-09T13:13:53;3.20;;;1.67;;
3329;SDS011;1677;49.576;10.990;2022-09-09T13:16:22;5.13;;;1.30;;
3329;SDS011;1677;49.576;10.990;2022-09-09T13:18:56;5.57;;;2.70;;
3329;SDS011;1677;49.576;10.990;2022-09-09T13:21:39;5.17;;;2.43;;
3329;SDS011;1677;49.576;10.990;2022-09-09T13:24:27;2.33;;;1.40;;
3329;SDS011;1677;49.576;10.990;2022-09-09T13:27:02;4.23;;;1.37;;
3329;SDS011;1677;49.576;10.990;2022-09-09T13:29:30;2.20;;;1.30;;
3329;SDS011;1677;49.576;10.990;2022-09-09T13:32:03;4.83;;;1.73;;
3329;SDS011;1677;49.576;10.990;2022-09-09T13:34:49;5.57;;;1.30;;
3329;SDS011;1677;49.576;10.990;2022-09-09T13:37:24;4.10;;;1.50;;
3329;SDS011;1677;49.576;10.990;2022-09-09T13:39:56;6.70;;;1.67;;
3329;SDS011;1677;49.576;10.990;2022-09-09T13:42:28;3.70;;;1.50;;
3329;SDS011;1677;49.576;10.990;2022-09-09T13:44:56;4.10;;;2.17;;
3329;SDS011;1677;49.576;10.990;2022-09-09T13:47:29;4.57;;;1.43;;
3329;SDS011;1677;49.576;10.990;2022-09-09T13:52:47;3.67;;;1.43;;
3329;SDS011;1677;49.576;10.990;2022-09-09T13:55:15;2.30;;;1.30;;
3329;SDS011;1677;49.576;10.990;2022-09-09T13:57:49;2.60;;;1.33;;
3329;SDS011;1677;49.576;10.990;2022-09-09T14:00:16;3.03;;;1.77;;
3329;SDS011;1677;49.576;10.990;2022-09-09T14:02:42;6.10;;;1.63;;
3329;SDS011;1677;49.576;10.990;2022-09-09T14:05:08;5.00;;;1.87;;
3329;SDS011;1677;49.576;10.990;2022-09-09T14:07:36;2.67;;;1.30;;
3329;SDS011;1677;49.576;10.990;2022-09-09T14:10:03;5.50;;;1.60;;
3329;SDS011;1677;49.576;10.990;2022-09-09T14:12:29;5.60;;;1.13;;
3329;SDS011;1677;49.576;10.990;2022-09-09T14:14:55;2.60;;;1.20;;
3329;SDS011;1677;49.576;10.990;2022-09-09T14:17:20;3.20;;;1.10;;
3329;SDS011;1677;49.576;10.990;2022-09-09T14:19:47;4.47;;;1.20;;
3329;SDS011;1677;49.576;10.990;2022-09-09T14:22:12;1.40;;;1.07;;
3329;SDS011;1677;49.576;10.990;2022-09-09T14:24:38;3.73;;;1.77;;
3329;SDS011;1677;49.576;10.990;2022-09-09T14:27:04;3.70;;;1.50;;
3329;SDS011;1677;49.576;10.990;2022-09-09T14:29:29;4.07;;;1.43;;
3329;SDS011;1677;49.576;10.990;2022-09-09T14:31:55;1.73;;;1.13;;
3329;SDS011;1677;49.576;10.990;2022-09-09T14:34:20;3.27;;;1.37;;
3329;SDS011;1677;49.576;10.990;2022-09-09T14:36:46;2.27;;;1.20;;
3329;SDS011;1677;49.576;10.990;2022-09-09T14:39:12;4.07;;;1.47;;
3329;SDS011;1677;49.576;10.990;2022-09-09T14:41:37;1.57;;;1.10;;
3329;SDS011;1677;49.576;10.990;2022-09-09T14:44:03;3.10;;;1.20;;
3329;SDS011;1677;49.576;10.990;2022-09-09T14:46:28;5.93;;;1.40;;
3329;SDS011;1677;49.576;10.990;2022-09-09T14:48:54;5.30;;;1.67;;
3329;SDS011;1677;49.576;10.990;2022-09-09T14:51:21;5.70;;;1.67;;
3329;SDS011;1677;49.576;10.990;2022-09-09T14:53:48;6.87;;;2.10;;
3329;SDS011;1677;49.576;10.990;2022-09-09T14:56:18;5.80;;;1.80;;
3329;SDS011;1677;49.576;10.990;2022-09-09T14:58:47;8.70;;;1.90;;
3329;SDS011;1677;49.576;10.990;2022-09-09T15:01:14;3.70;;;2.43;;
3329;SDS011;1677;49.576;10.990;2022-09-09T15:03:42;6.70;;;1.83;;
3329;SDS011;1677;49.576;10.990;2022-09-09T15:06:13;1.73;;;1.17;;
3329;SDS011;1677;49.576;10.990;2022-09-09T15:08:40;3.83;;;1.37;;
3329;SDS011;1677;49.576;10.990;2022-09-09T15:11:07;2.83;;;1.30;;
3329;SDS011;1677;49.576;10.990;2022-09-09T15:13:35;3.47;;;1.30;;
3329;SDS011;1677;49.576;10.990;2022-09-09T15:16:09;4.50;;;1.60;;
3329;SDS011;1677;49.576;10.990;2022-09-09T15:18:39;2.00;;;1.20;;
3329;SDS011;1677;49.576;10.990;2022-09-09T15:21:11;4.90;;;1.47;;
3329;SDS011;1677;49.576;10.990;2022-09-09T15:23:38;4.23;;;1.40;;
3329;SDS011;1677;49.576;10.990;2022-09-09T15:26:04;3.50;;;1.37;;
3329;SDS011;1677;49.576;10.990;2022-09-09T15:28:31;3.30;;;1.53;;
3329;SDS011;1677;49.576;10.990;2022-09-09T15:31:04;2.10;;;1.53;;
3329;SDS011;1677;49.576;10.990;2022-09-09T15:33:39;1.93;;;1.30;;
3329;SDS011;1677;49.576;10.990;2022-09-09T15:36:21;3.13;;;1.73;;
3329;SDS011;1677;49.576;10.990;2022-09-09T15:38:48;7.03;;;1.40;;
3329;SDS011;1677;49.576;10.990;2022-09-09T15:41:15;1.83;;;1.03;;
3329;SDS011;1677;49.576;10.990;2022-09-09T15:44:00;4.50;;;1.30;;
3329;SDS011;1677;49.576;10.990;2022-09-09T15:46:28;3.23;;;1.40;;
3329;SDS011;1677;49.576;10.990;2022-09-09T15:49:07;3.20;;;1.70;;
3329;SDS011;1677;49.576;10.990;2022-09-09T15:51:41;1.50;;;1.00;;
3329;SDS011;1677;49.576;10.990;2022-09-09T15:54:09;3.23;;;1.20;;
3329;SDS011;1677;49.576;10.990;2022-09-09T15:56:39;1.70;;;0.97;;
3329;SDS011;1677;49.576;10.990;2022-09-09T15:59:05;4.03;;;1.10;;
3329;SDS011;1677;49.576;10.990;2022-09-09T16:01:31;3.23;;;1.00;;
3329;SDS011;1677;49.576;10.990;2022-09-09T16:03:57;2.13;;;1.20;;
3329;SDS011;1677;49.576;10.990;2022-09-09T16:06:24;2.97;;;1.23;;
3329;SDS011;1677;49.576;10.990;2022-09-09T16:08:53;4.03;;;1.17;;
3329;SDS011;1677;49.576;10.990;2022-09-09T16:11:21;3.57;;;0.80;;
3329;SDS011;1677;49.576;10.990;2022-09-09T16:13:49;1.17;;;0.90;;
3329;SDS011;1677;49.576;10.990;2022-09-09T16:16:17;1.00;;;0.70;;
3329;SDS011;1677;49.576;10.990;2022-09-09T16:18:47;1.57;;;0.87;;
3329;SDS011;1677;49.576;10.990;2022-09-09T16:21:15;1.87;;;0.83;;
3329;SDS011;1677;49.576;10.990;2022-09-09T16:23:49;1.92;;;1.00;;
3329;SDS011;1677;49.576;10.990;2022-09-09T16:26:16;1.73;;;1.00;;
3329;SDS011;1677;49.576;10.990;2022-09-09T16:28:42;2.33;;;1.00;;
3329;SDS011;1677;49.576;10.990;2022-09-09T16:31:08;1.67;;;1.00;;
3329;SDS011;1677;49.576;10.990;2022-09-09T16:33:36;2.40;;;1.13;;
3329;SDS011;1677;49.576;10.990;2022-09-09T16:36:08;1.27;;;1.03;;
3329;SDS011;1677;49.576;10.990;2022-09-09T16:38:36;1.87;;;1.20;;
3329;SDS011;1677;49.576;10.990;2022-09-09T16:41:02;2.70;;;1.00;;
3329;SDS011;1677;49.576;10.990;2022-09-09T16:43:30;1.33;;;0.90;;
3329;SDS011;1677;49.576;10.990;2022-09-09T16:45:57;1.10;;;0.87;;
3329;SDS011;1677;49.576;10.990;2022-09-09T16:48:25;2.07;;;0.80;;
3329;SDS011;1677;49.576;10.990;2022-09-09T16:50:51;1.00;;;0.70;;
3329;SDS011;1677;49.576;10.990;2022-09-09T16:53:17;2.93;;;1.10;;
3329;SDS011;1677;49.576;10.990;2022-09-09T16:55:43;3.53;;;1.13;;
3329;SDS011;1677;49.576;10.990;2022-09-09T16:58:12;2.60;;;0.90;;
3329;SDS011;1677;49.576;10.990;2022-09-09T17:00:37;1.70;;;0.80;;
3329;SDS011;1677;49.576;10.990;2022-09-09T17:03:03;2.40;;;0.80;;
3329;SDS011;1677;49.576;10.990;2022-09-09T17:05:29;1.00;;;0.77;;
3329;SDS011;1677;49.576;10.990;2022-09-09T17:07:55;1.30;;;0.90;;
3329;SDS011;1677;49.576;10.990;2022-09-09T17:10:24;1.80;;;0.70;;
3329;SDS011;1677;49.576;10.990;2022-09-09T17:12:50;1.20;;;0.83;;
3329;SDS011;1677;49.576;10.990;2022-09-09T17:15:16;1.83;;;1.10;;
3329;SDS011;1677;49.576;10.990;2022-09-09T17:17:42;1.73;;;1.00;;
3329;SDS011;1677;49.576;10.990;2022-09-09T17:20:10;6.73;;;0.70;;
3329;SDS011;1677;49.576;10.990;2022-09-09T17:22:36;2.03;;;0.93;;
3329;SDS011;1677;49.576;10.990;2022-09-09T17:25:02;1.47;;;1.17;;
3329;SDS011;1677;49.576;10.990;2022-09-09T17:27:28;1.77;;;1.20;;
3329;SDS011;1677;49.576;10.990;2022-09-09T17:29:56;2.63;;;1.37;;
3329;SDS011;1677;49.576;10.990;2022-09-09T17:32:22;2.40;;;1.25;;
3329;SDS011;1677;49.576;10.990;2022-09-09T17:34:47;2.83;;;1.13;;
3329;SDS011;1677;49.576;10.990;2022-09-09T17:37:13;1.37;;;0.90;;
3329;SDS011;1677;49.576;10.990;2022-09-09T17:39:39;1.20;;;1.10;;